Time;durP1;ratioP1;P1;durP2;ratioP2;P2;SDS_P1;SDS_P2;PMS_P1;PMS_P2;Temp;Humidity;BMP_temperature;BMP_pressure;BME280_temperature;BME280_humidity;BME280_pressure;Samples;Min_cycle;Max_cycle;Signal;HPM_P1;HPM_P2
2021/11/11 00:00:23;;;;;;;38.93;17.10;;;7.20;99.90;;;;;;5115520;28;20482;-68
2021/11/11 00:02:50;;;;;;;21.10;16.60;;;7.20;99.90;;;;;;5115238;28;20535;-68
2021/11/11 00:05:17;;;;;;;24.17;15.90;;;7.20;99.90;;;;;;5115308;28;20506;-67
2021/11/11 00:07:43;;;;;;;22.67;15.93;;;7.10;99.90;;;;;;5115571;28;20928;-69
2021/11/11 00:10:13;;;;;;;25.07;17.33;;;7.20;99.90;;;;;;5115436;28;20474;-69
2021/11/11 00:12:40;;;;;;;18.80;15.70;;;7.20;99.90;;;;;;5115197;27;21118;-69
2021/11/11 00:15:15;;;;;;;23.73;16.17;;;7.10;99.90;;;;;;5117037;28;20875;-68
2021/11/11 00:17:44;;;;;;;22.97;14.97;;;7.10;99.90;;;;;;5117735;28;20454;-67
2021/11/11 00:20:12;;;;;;;24.73;17.33;;;7.20;99.90;;;;;;5118178;28;20459;-68
2021/11/11 00:22:41;;;;;;;22.10;14.90;;;7.10;99.90;;;;;;5115488;28;20749;-69
2021/11/11 00:25:09;;;;;;;23.17;17.13;;;7.10;99.90;;;;;;5115256;28;20816;-69
2021/11/11 00:27:37;;;;;;;23.80;16.73;;;7.10;99.90;;;;;;5115271;28;20460;-68
2021/11/11 00:30:05;;;;;;;23.43;17.23;;;7.00;99.90;;;;;;5115181;28;20475;-68
2021/11/11 00:32:32;;;;;;;28.33;16.20;;;7.00;99.90;;;;;;5114984;28;20489;-68
2021/11/11 00:35:00;;;;;;;24.27;16.30;;;7.00;99.90;;;;;;5114800;28;21000;-68
2021/11/11 00:37:27;;;;;;;30.43;20.10;;;7.00;99.90;;;;;;5115024;28;20943;-68
2021/11/11 00:39:54;;;;;;;26.07;18.20;;;6.90;99.90;;;;;;5115815;28;20827;-69
2021/11/11 00:42:21;;;;;;;24.63;17.40;;;6.90;99.90;;;;;;5116766;28;20506;-68
2021/11/11 00:44:49;;;;;;;24.00;16.73;;;6.90;99.90;;;;;;5119235;28;20560;-68
2021/11/11 00:47:16;;;;;;;23.40;15.83;;;6.90;99.90;;;;;;5119097;27;20455;-68
2021/11/11 00:49:43;;;;;;;25.67;15.57;;;6.80;99.90;;;;;;5119269;28;20839;-68
2021/11/11 00:52:11;;;;;;;24.87;16.73;;;6.80;99.90;;;;;;5119236;28;20805;-68
2021/11/11 00:54:40;;;;;;;24.43;17.17;;;6.80;99.90;;;;;;5118977;28;20934;-68
2021/11/11 00:57:07;;;;;;;27.00;16.40;;;6.70;99.90;;;;;;5119328;28;20462;-68
2021/11/11 00:59:34;;;;;;;26.87;16.83;;;6.70;99.90;;;;;;5118884;28;20457;-68
2021/11/11 01:02:03;;;;;;;25.20;16.93;;;6.60;99.90;;;;;;5118305;28;20967;-68
2021/11/11 01:04:32;;;;;;;24.33;16.40;;;6.60;99.90;;;;;;5119218;28;20513;-68
2021/11/11 01:06:59;;;;;;;21.87;16.53;;;6.60;99.90;;;;;;5119034;28;20455;-69
2021/11/11 01:09:27;;;;;;;20.23;15.90;;;6.60;99.90;;;;;;5118870;28;20527;-69
2021/11/11 01:11:53;;;;;;;26.67;18.03;;;6.60;99.90;;;;;;5118435;28;20450;-69
2021/11/11 01:14:20;;;;;;;22.57;16.97;;;6.60;99.90;;;;;;5118887;28;20466;-69
2021/11/11 01:16:47;;;;;;;23.00;16.20;;;6.50;99.90;;;;;;5118490;28;20535;-69
2021/11/11 01:19:14;;;;;;;25.10;16.87;;;6.50;99.90;;;;;;5118776;28;20838;-69
2021/11/11 01:21:41;;;;;;;25.13;17.67;;;6.50;99.90;;;;;;5118549;28;20459;-69
2021/11/11 01:24:08;;;;;;;27.33;16.30;;;6.50;99.90;;;;;;5118701;28;20457;-69
2021/11/11 01:26:36;;;;;;;28.40;17.37;;;6.40;99.90;;;;;;5118722;28;20452;-69
2021/11/11 01:29:04;;;;;;;20.30;15.67;;;6.40;99.90;;;;;;5118711;28;20463;-69
2021/11/11 01:31:31;;;;;;;22.90;16.83;;;6.40;99.90;;;;;;5118105;28;21003;-69
2021/11/11 01:33:57;;;;;;;25.17;17.43;;;6.30;99.90;;;;;;5118788;28;20793;-69
2021/11/11 01:36:24;;;;;;;22.23;17.33;;;6.30;99.90;;;;;;5118883;28;20786;-69
2021/11/11 01:38:51;;;;;;;20.33;16.00;;;6.30;99.90;;;;;;5118659;28;20473;-68
2021/11/11 01:41:18;;;;;;;24.10;17.50;;;6.30;99.90;;;;;;5118244;28;20453;-69
2021/11/11 01:43:46;;;;;;;24.90;17.10;;;6.20;99.90;;;;;;5118811;28;20463;-68
2021/11/11 01:46:13;;;;;;;23.63;17.60;;;6.20;99.90;;;;;;5118692;28;20488;-69
2021/11/11 01:48:40;;;;;;;26.30;17.10;;;6.10;99.90;;;;;;5118006;28;20471;-69
2021/11/11 01:51:07;;;;;;;27.73;18.27;;;6.10;99.90;;;;;;5118259;28;20923;-68
2021/11/11 01:53:34;;;;;;;25.30;17.07;;;6.10;99.90;;;;;;5121979;28;20457;-68
2021/11/11 01:56:01;;;;;;;25.30;16.60;;;6.00;99.90;;;;;;5122035;28;20457;-68
2021/11/11 01:58:28;;;;;;;25.17;17.40;;;6.00;99.90;;;;;;5121733;27;20921;-68
2021/11/11 02:00:58;;;;;;;25.00;16.77;;;6.10;99.90;;;;;;5122737;28;20485;-68
2021/11/11 02:03:25;;;;;;;29.27;19.03;;;6.00;99.90;;;;;;5122568;28;20458;-68
2021/11/11 02:05:52;;;;;;;24.30;18.40;;;6.00;99.90;;;;;;5122566;28;20925;-67
2021/11/11 02:08:20;;;;;;;30.53;20.10;;;6.00;99.90;;;;;;5122191;28;20468;-67
2021/11/11 02:10:47;;;;;;;22.87;16.67;;;6.00;99.90;;;;;;5121989;28;20509;-67
2021/11/11 02:13:14;;;;;;;24.13;17.23;;;5.90;99.90;;;;;;5120677;28;20466;-67
2021/11/11 02:15:41;;;;;;;29.57;18.50;;;5.90;99.90;;;;;;5117904;28;20556;-69
2021/11/11 02:18:10;;;;;;;25.43;18.00;;;5.90;99.90;;;;;;5117568;28;20458;-67
2021/11/11 02:20:41;;;;;;;26.07;18.30;;;5.90;99.90;;;;;;5117598;28;20466;-68
2021/11/11 02:23:11;;;;;;;26.27;19.03;;;5.90;99.90;;;;;;5117721;28;20437;-67
2021/11/11 02:25:39;;;;;;;23.37;18.83;;;5.90;99.90;;;;;;5117731;28;20807;-67
2021/11/11 02:28:09;;;;;;;24.87;18.13;;;5.90;99.90;;;;;;5117471;28;20465;-67
2021/11/11 02:30:38;;;;;;;26.30;17.43;;;5.90;99.90;;;;;;5117929;27;20469;-67
2021/11/11 02:33:12;;;;;;;27.17;18.70;;;5.90;99.90;;;;;;5117310;28;20786;-67
2021/11/11 02:35:40;;;;;;;26.07;18.10;;;5.80;99.90;;;;;;5117260;28;20448;-68
2021/11/11 02:38:08;;;;;;;25.47;18.20;;;5.80;99.90;;;;;;5117380;28;20798;-67
2021/11/11 02:40:36;;;;;;;31.10;18.10;;;5.70;99.90;;;;;;5117228;28;20515;-68
2021/11/11 02:43:03;;;;;;;27.60;18.03;;;5.70;99.90;;;;;;5116741;28;20465;-68
2021/11/11 02:45:32;;;;;;;25.33;17.90;;;5.60;99.90;;;;;;5116858;28;20477;-68
2021/11/11 02:48:00;;;;;;;24.87;18.10;;;5.60;99.90;;;;;;5116772;28;20464;-67
2021/11/11 02:50:29;;;;;;;23.27;17.40;;;5.60;99.90;;;;;;5116899;28;20468;-67
2021/11/11 02:52:59;;;;;;;29.00;20.20;;;5.60;99.90;;;;;;5116798;28;20951;-69
2021/11/11 02:55:26;;;;;;;25.43;18.20;;;5.60;99.90;;;;;;5116941;27;20939;-68
2021/11/11 02:57:54;;;;;;;26.67;17.80;;;5.60;99.90;;;;;;5116671;28;20525;-67
2021/11/11 03:00:24;;;;;;;26.67;18.20;;;5.50;99.90;;;;;;5117132;28;20824;-67
2021/11/11 03:02:52;;;;;;;27.33;18.43;;;5.50;99.90;;;;;;5117434;28;20456;-68
2021/11/11 03:05:21;;;;;;;24.17;17.70;;;5.50;99.90;;;;;;5115982;28;20473;-67
2021/11/11 03:07:48;;;;;;;25.10;18.30;;;5.50;99.90;;;;;;5116531;28;20469;-67
2021/11/11 03:10:19;;;;;;;23.70;18.67;;;5.40;99.90;;;;;;5116692;28;20457;-68
2021/11/11 03:12:47;;;;;;;24.07;17.37;;;5.50;99.90;;;;;;5116640;28;20438;-68
2021/11/11 03:15:14;;;;;;;25.43;18.13;;;5.50;99.90;;;;;;5116331;28;20515;-68
2021/11/11 03:17:42;;;;;;;29.93;18.63;;;5.50;99.90;;;;;;5116119;28;20942;-68
2021/11/11 03:20:10;;;;;;;28.60;18.67;;;5.40;99.90;;;;;;5115871;28;20978;-68
2021/11/11 03:22:42;;;;;;;25.40;18.20;;;5.30;99.90;;;;;;5116108;28;20469;-70
2021/11/11 03:25:11;;;;;;;26.30;19.07;;;5.20;99.90;;;;;;5116176;28;20558;-68
2021/11/11 03:27:39;;;;;;;28.67;18.03;;;5.20;99.90;;;;;;5116097;28;20464;-68
2021/11/11 03:30:09;;;;;;;30.57;19.47;;;5.10;99.90;;;;;;5116069;28;20779;-68
2021/11/11 03:32:36;;;;;;;29.70;20.17;;;5.10;99.90;;;;;;5116322;28;20838;-68
2021/11/11 03:35:03;;;;;;;26.47;17.90;;;5.10;99.90;;;;;;5116107;28;20467;-68
2021/11/11 03:37:30;;;;;;;28.47;18.30;;;5.10;99.90;;;;;;5116002;28;20452;-68
2021/11/11 03:39:57;;;;;;;26.43;17.43;;;5.10;99.90;;;;;;5116447;28;20927;-68
2021/11/11 03:42:24;;;;;;;24.30;18.53;;;5.20;99.90;;;;;;5115836;28;20476;-69
2021/11/11 03:44:52;;;;;;;26.13;18.70;;;5.10;99.90;;;;;;5115917;28;20467;-69
2021/11/11 03:47:19;;;;;;;25.60;17.90;;;5.10;99.90;;;;;;5116268;28;20482;-68
2021/11/11 03:49:47;;;;;;;24.17;17.10;;;5.10;99.90;;;;;;5115609;28;20495;-68
2021/11/11 03:52:14;;;;;;;24.27;18.57;;;5.10;99.90;;;;;;5115816;28;20453;-69
2021/11/11 03:54:41;;;;;;;24.50;18.13;;;5.00;99.90;;;;;;5115576;28;20757;-69
2021/11/11 03:57:08;;;;;;;24.40;18.60;;;5.00;99.90;;;;;;5115844;28;20456;-68
2021/11/11 03:59:36;;;;;;;29.77;19.23;;;4.90;99.90;;;;;;5115696;28;20461;-69
2021/11/11 04:02:05;;;;;;;25.87;19.10;;;4.90;99.90;;;;;;5114982;28;20485;-69
2021/11/11 04:04:33;;;;;;;28.67;17.93;;;4.80;99.90;;;;;;5115738;28;20467;-69
2021/11/11 04:06:59;;;;;;;29.50;19.33;;;4.70;99.90;;;;;;5115383;28;20964;-68
2021/11/11 04:09:28;;;;;;;27.60;18.87;;;4.70;99.90;;;;;;5115429;28;20841;-68
2021/11/11 04:11:54;;;;;;;30.57;20.77;;;4.50;99.90;;;;;;5115648;28;20925;-68
2021/11/11 04:14:21;;;;;;;34.03;20.47;;;4.50;99.90;;;;;;5115130;28;20533;-67
2021/11/11 04:16:49;;;;;;;32.87;19.57;;;4.40;99.90;;;;;;5114315;28;20461;-69
2021/11/11 04:19:17;;;;;;;30.77;20.00;;;4.30;99.90;;;;;;5115134;28;20542;-68
2021/11/11 04:21:44;;;;;;;32.23;18.97;;;4.30;99.90;;;;;;5115404;28;20904;-68
2021/11/11 04:24:11;;;;;;;30.00;18.97;;;4.30;99.90;;;;;;5115758;28;20470;-67
2021/11/11 04:26:46;;;;;;;33.20;20.67;;;4.30;99.90;;;;;;5115007;28;20483;-68
2021/11/11 04:29:17;;;;;;;30.87;21.17;;;4.30;99.90;;;;;;5115261;28;20439;-67
2021/11/11 04:31:48;;;;;;;32.10;23.30;;;4.20;99.90;;;;;;5115407;28;20799;-67
2021/11/11 04:34:16;;;;;;;27.50;21.13;;;4.20;99.90;;;;;;5117840;28;20862;-68
2021/11/11 04:40:12;;;;;;;33.93;21.27;;;4.10;99.90;;;;;;5114952;28;20426;-68
2021/11/11 04:48:49;;;;;;;40.60;24.17;;;4.00;99.90;;;;;;5080821;28;20450;-68
2021/11/11 05:00:01;;;;;;;33.23;21.63;;;3.80;99.90;;;;;;5055029;28;20452;-69
2021/11/11 05:02:41;;;;;;;35.47;21.43;;;3.80;99.90;;;;;;5110028;28;20459;-67
2021/11/11 05:05:09;;;;;;;31.20;21.90;;;3.80;99.90;;;;;;5118453;28;20440;-68
2021/11/11 05:07:36;;;;;;;36.47;21.17;;;3.90;99.90;;;;;;5118177;28;20515;-69
2021/11/11 05:10:04;;;;;;;28.63;20.37;;;3.90;99.90;;;;;;5118325;28;20931;-68
2021/11/11 05:12:31;;;;;;;27.17;19.20;;;4.00;99.90;;;;;;5119709;28;20457;-68
2021/11/11 05:14:58;;;;;;;29.60;20.57;;;4.00;99.90;;;;;;5120172;28;20491;-68
2021/11/11 05:17:25;;;;;;;36.53;19.93;;;4.10;99.90;;;;;;5119303;28;20452;-68
2021/11/11 05:19:52;;;;;;;29.83;20.03;;;4.20;99.90;;;;;;5119524;28;20454;-68
2021/11/11 05:22:20;;;;;;;29.30;19.60;;;4.20;99.90;;;;;;5119392;28;20460;-68
2021/11/11 05:24:47;;;;;;;27.87;19.13;;;4.30;99.90;;;;;;5118619;28;20453;-68
2021/11/11 05:27:16;;;;;;;25.53;19.10;;;4.30;99.90;;;;;;5118532;28;20475;-68
2021/11/11 05:29:44;;;;;;;27.37;17.73;;;4.30;99.90;;;;;;5122017;28;20457;-68
2021/11/11 05:32:10;;;;;;;27.80;18.33;;;4.40;99.90;;;;;;5121842;28;20464;-68
2021/11/11 05:34:37;;;;;;;33.10;20.73;;;4.40;99.90;;;;;;5121597;28;20881;-68
2021/11/11 05:37:05;;;;;;;30.07;19.73;;;4.40;99.90;;;;;;5121832;28;20452;-68
2021/11/11 05:39:32;;;;;;;25.50;18.07;;;4.30;99.90;;;;;;5121391;28;20546;-68
2021/11/11 05:41:59;;;;;;;28.40;19.20;;;4.20;99.90;;;;;;5121192;28;20507;-68
2021/11/11 05:44:27;;;;;;;25.27;18.37;;;4.10;99.90;;;;;;5122323;28;20455;-69
2021/11/11 05:46:54;;;;;;;31.60;19.53;;;4.10;99.90;;;;;;5122202;28;20494;-68
2021/11/11 05:49:21;;;;;;;28.50;18.40;;;4.10;99.90;;;;;;5121527;28;20648;-68
2021/11/11 05:51:48;;;;;;;32.53;19.90;;;4.00;99.90;;;;;;5122287;28;20467;-68
2021/11/11 05:54:15;;;;;;;30.97;18.90;;;4.00;99.90;;;;;;5122143;28;20460;-68
2021/11/11 05:56:41;;;;;;;30.13;20.10;;;4.10;99.90;;;;;;5122934;28;20482;-68
2021/11/11 05:59:08;;;;;;;31.43;20.27;;;4.20;99.90;;;;;;5122083;28;20452;-68
2021/11/11 06:01:36;;;;;;;25.77;19.50;;;4.20;99.90;;;;;;5121736;28;20963;-68
2021/11/11 06:04:04;;;;;;;31.43;19.80;;;4.30;99.90;;;;;;5123585;28;20457;-68
2021/11/11 06:06:33;;;;;;;29.20;19.30;;;4.30;99.90;;;;;;5122470;28;20480;-68
2021/11/11 06:08:59;;;;;;;26.17;17.57;;;4.20;99.90;;;;;;5122436;28;20479;-68
2021/11/11 06:11:26;;;;;;;48.37;30.50;;;4.20;99.90;;;;;;5121614;28;20457;-68
2021/11/11 06:13:53;;;;;;;30.83;20.60;;;4.20;99.90;;;;;;5121676;27;20459;-69
2021/11/11 06:16:21;;;;;;;30.33;19.43;;;4.10;99.90;;;;;;5121338;28;20551;-69
2021/11/11 06:18:50;;;;;;;29.37;19.50;;;4.00;99.90;;;;;;5117656;28;20467;-69
2021/11/11 06:21:17;;;;;;;27.83;20.27;;;4.00;99.90;;;;;;5117766;28;20460;-69
2021/11/11 06:23:44;;;;;;;35.30;22.30;;;4.00;99.90;;;;;;5117323;28;20470;-70
2021/11/11 06:26:10;;;;;;;37.67;24.10;;;3.90;99.90;;;;;;5117352;28;20940;-69
2021/11/11 06:28:37;;;;;;;30.70;20.70;;;3.90;99.90;;;;;;5117393;28;20464;-69
2021/11/11 06:31:04;;;;;;;33.40;20.27;;;3.90;99.90;;;;;;5117316;28;20481;-69
2021/11/11 06:33:31;;;;;;;35.00;18.93;;;4.00;99.90;;;;;;5117328;28;20909;-69
2021/11/11 06:35:59;;;;;;;31.07;19.93;;;4.10;99.90;;;;;;5117200;28;20528;-69
2021/11/11 06:38:25;;;;;;;29.77;20.37;;;4.10;99.90;;;;;;5117600;27;20807;-68
2021/11/11 06:40:54;;;;;;;34.93;20.10;;;4.10;99.90;;;;;;5116364;28;20460;-69
2021/11/11 06:43:20;;;;;;;31.43;20.77;;;4.20;99.90;;;;;;5117432;28;20539;-69
2021/11/11 06:45:47;;;;;;;28.17;18.80;;;4.20;99.90;;;;;;5116372;28;20932;-68
2021/11/11 06:48:15;;;;;;;33.07;20.83;;;4.20;99.90;;;;;;5117193;28;20457;-69
2021/11/11 06:50:43;;;;;;;34.10;24.17;;;4.30;99.90;;;;;;5116678;28;20459;-69
2021/11/11 06:53:12;;;;;;;34.00;20.60;;;4.30;99.90;;;;;;5116924;28;20483;-69
2021/11/11 06:55:42;;;;;;;29.27;20.50;;;4.20;99.90;;;;;;5116900;28;20792;-69
2021/11/11 06:58:09;;;;;;;29.80;20.63;;;4.30;99.90;;;;;;5116873;28;20775;-69
2021/11/11 07:00:36;;;;;;;41.53;21.63;;;4.40;99.90;;;;;;5116331;28;20481;-69
2021/11/11 07:03:03;;;;;;;32.40;20.97;;;4.40;99.90;;;;;;5116699;28;20533;-69
2021/11/11 07:05:31;;;;;;;32.30;21.67;;;4.50;99.90;;;;;;5116704;28;20787;-68
2021/11/11 07:07:58;;;;;;;32.73;20.67;;;4.50;99.90;;;;;;5118539;28;20485;-68
2021/11/11 07:10:26;;;;;;;33.47;22.73;;;4.50;99.90;;;;;;5118238;28;20467;-69
2021/11/11 07:12:53;;;;;;;38.80;21.77;;;4.50;99.90;;;;;;5116541;28;20565;-69
2021/11/11 07:15:20;;;;;;;42.00;23.80;;;4.50;99.90;;;;;;5116717;28;20456;-69
2021/11/11 07:17:47;;;;;;;38.37;22.03;;;4.40;99.90;;;;;;5116727;28;20559;-69
2021/11/11 07:20:15;;;;;;;35.10;23.40;;;4.40;99.90;;;;;;5115917;28;20454;-69
2021/11/11 07:22:45;;;;;;;33.57;21.30;;;4.50;99.90;;;;;;5115916;28;20974;-69
2021/11/11 07:25:13;;;;;;;32.53;21.27;;;4.50;99.90;;;;;;5116050;27;20472;-69
2021/11/11 07:27:43;;;;;;;33.53;21.13;;;4.50;99.90;;;;;;5116157;28;20489;-70
2021/11/11 07:30:12;;;;;;;32.27;21.67;;;4.50;99.90;;;;;;5116064;28;20543;-69
2021/11/11 07:32:39;;;;;;;35.10;22.73;;;4.50;99.90;;;;;;5116649;28;20464;-68
2021/11/11 07:35:09;;;;;;;40.07;22.17;;;4.50;99.90;;;;;;5120827;27;20457;-69
2021/11/11 07:37:36;;;;;;;38.10;23.83;;;4.70;99.90;;;;;;5121662;28;20511;-69
2021/11/11 07:40:03;;;;;;;31.40;21.47;;;4.80;99.90;;;;;;5118567;28;20459;-68
2021/11/11 07:42:30;;;;;;;42.33;23.30;;;4.90;99.90;;;;;;5115678;28;20467;-68
2021/11/11 07:44:58;;;;;;;46.07;23.53;;;4.90;99.90;;;;;;5115996;28;20517;-69
2021/11/11 07:47:27;;;;;;;33.70;22.80;;;5.00;99.90;;;;;;5115056;28;20486;-69
2021/11/11 07:49:54;;;;;;;57.33;24.63;;;5.00;99.90;;;;;;5115791;28;20472;-69
2021/11/11 07:52:21;;;;;;;42.57;23.00;;;5.10;99.90;;;;;;5115584;28;20461;-69
2021/11/11 07:54:49;;;;;;;35.17;23.37;;;5.10;99.90;;;;;;5115234;28;20452;-70
2021/11/11 07:57:16;;;;;;;41.20;23.10;;;5.10;99.90;;;;;;5115837;28;20453;-69
2021/11/11 07:59:43;;;;;;;33.03;21.40;;;5.10;99.90;;;;;;5115618;28;20460;-69
2021/11/11 08:02:10;;;;;;;33.83;22.90;;;5.20;99.90;;;;;;5115230;28;20477;-69
2021/11/11 08:04:39;;;;;;;34.33;22.20;;;5.30;99.90;;;;;;5115448;28;20450;-69
2021/11/11 08:07:06;;;;;;;31.53;20.70;;;5.30;99.90;;;;;;5115469;28;20489;-69
2021/11/11 08:09:33;;;;;;;33.23;20.20;;;5.20;99.90;;;;;;5115294;28;20465;-69
2021/11/11 08:11:59;;;;;;;39.60;22.23;;;5.20;99.90;;;;;;5115068;28;20449;-68
2021/11/11 08:14:26;;;;;;;32.23;22.30;;;5.20;99.90;;;;;;5115641;28;20456;-68
2021/11/11 08:16:53;;;;;;;28.43;19.83;;;5.30;99.90;;;;;;5115415;28;20453;-69
2021/11/11 08:19:22;;;;;;;31.30;21.43;;;5.40;99.90;;;;;;5115299;28;20480;-68
2021/11/11 08:21:48;;;;;;;25.40;18.93;;;5.50;99.90;;;;;;5114876;28;20548;-68
2021/11/11 08:24:15;;;;;;;37.33;22.10;;;5.60;99.90;;;;;;5114673;28;20544;-68
2021/11/11 08:26:42;;;;;;;32.10;21.20;;;5.60;99.90;;;;;;5114888;28;20477;-68
2021/11/11 08:29:09;;;;;;;31.83;21.23;;;5.60;99.90;;;;;;5114900;28;20517;-68
2021/11/11 08:31:36;;;;;;;35.27;22.07;;;5.70;99.90;;;;;;5115225;28;20759;-69
2021/11/11 08:34:03;;;;;;;30.87;21.17;;;5.70;99.90;;;;;;5114356;28;20483;-69
2021/11/11 08:36:31;;;;;;;32.53;21.83;;;5.70;99.90;;;;;;5114853;28;20462;-69
2021/11/11 08:38:58;;;;;;;34.07;22.87;;;5.90;99.90;;;;;;5114704;28;20525;-68
2021/11/11 08:41:26;;;;;;;37.23;22.50;;;6.00;99.90;;;;;;5114690;28;20458;-68
2021/11/11 08:43:53;;;;;;;39.10;21.97;;;6.10;99.90;;;;;;5115080;28;20792;-68
2021/11/11 08:46:21;;;;;;;31.40;20.80;;;6.20;99.90;;;;;;5114874;28;20453;-68
2021/11/11 08:48:48;;;;;;;36.90;23.07;;;6.30;99.90;;;;;;5115376;28;20852;-69
2021/11/11 08:51:15;;;;;;;32.73;20.10;;;6.40;99.90;;;;;;5114546;28;20545;-69
2021/11/11 08:53:43;;;;;;;34.00;22.50;;;6.50;99.90;;;;;;5114630;28;20450;-68
2021/11/11 08:56:09;;;;;;;33.87;20.50;;;6.60;99.90;;;;;;5114928;28;20455;-69
2021/11/11 08:58:38;;;;;;;30.50;20.70;;;6.70;99.90;;;;;;5115371;28;20447;-69
2021/11/11 09:01:06;;;;;;;31.40;21.10;;;6.70;99.90;;;;;;5114767;28;20569;-69
2021/11/11 09:03:35;;;;;;;29.93;20.67;;;6.70;99.90;;;;;;5117109;28;20514;-68
2021/11/11 09:06:02;;;;;;;30.80;20.20;;;6.90;99.90;;;;;;5119883;28;20457;-68
2021/11/11 09:08:29;;;;;;;32.93;23.30;;;6.90;99.90;;;;;;5118977;28;20491;-69
2021/11/11 09:10:58;;;;;;;37.10;25.30;;;6.90;99.90;;;;;;5118856;28;20467;-68
2021/11/11 09:13:27;;;;;;;32.10;21.80;;;7.00;99.90;;;;;;5118549;28;20513;-69
2021/11/11 09:15:54;;;;;;;30.60;19.60;;;7.10;99.90;;;;;;5119089;28;20554;-68
2021/11/11 09:18:21;;;;;;;30.00;19.27;;;7.20;99.90;;;;;;5118488;28;20830;-69
2021/11/11 09:20:48;;;;;;;32.03;19.67;;;7.20;99.90;;;;;;5118491;28;20465;-68
2021/11/11 09:23:15;;;;;;;28.53;18.83;;;7.30;99.90;;;;;;5118749;28;20454;-67
2021/11/11 09:25:42;;;;;;;29.00;19.67;;;7.30;99.90;;;;;;5118790;28;20460;-68
2021/11/11 09:28:10;;;;;;;26.40;16.70;;;7.40;99.90;;;;;;5118394;28;20476;-69
2021/11/11 09:30:38;;;;;;;22.70;14.30;;;7.40;99.90;;;;;;5118513;28;20527;-68
2021/11/11 09:33:06;;;;;;;26.70;15.30;;;7.40;99.90;;;;;;5118326;28;20815;-69
2021/11/11 09:35:33;;;;;;;26.13;14.90;;;7.40;99.90;;;;;;5118492;28;20472;-68
2021/11/11 09:38:01;;;;;;;24.37;14.53;;;7.40;99.90;;;;;;5118421;27;20530;-69
2021/11/11 09:40:29;;;;;;;26.30;14.67;;;7.40;99.90;;;;;;5119373;28;20459;-69
2021/11/11 09:42:57;;;;;;;24.93;14.77;;;7.50;99.90;;;;;;5119258;28;20452;-68
2021/11/11 09:45:28;;;;;;;25.40;15.37;;;7.60;99.90;;;;;;5118448;27;20540;-68
2021/11/11 09:47:56;;;;;;;25.97;17.30;;;7.70;99.90;;;;;;5118001;28;20474;-69
2021/11/11 09:50:27;;;;;;;30.00;23.37;;;7.80;99.90;;;;;;5117711;28;20924;-68
2021/11/11 09:52:55;;;;;;;35.40;25.83;;;7.90;99.90;;;;;;5118121;28;20772;-68
2021/11/11 10:00:56;;;;;;;29.07;20.40;;;7.90;99.90;;;;;;5117689;28;20487;-68
2021/11/11 10:03:23;;;;;;;34.30;21.07;;;7.60;99.90;;;;;;5118843;28;20520;-68
2021/11/11 10:05:51;;;;;;;38.23;22.30;;;7.60;99.90;;;;;;5117668;28;20455;-68
2021/11/11 10:08:36;;;;;;;35.97;22.47;;;7.60;99.90;;;;;;5117794;28;20480;-68
2021/11/11 10:11:08;;;;;;;33.40;21.20;;;7.80;99.90;;;;;;5117626;28;20451;-67
2021/11/11 10:13:34;;;;;;;35.17;21.33;;;7.90;99.90;;;;;;5117089;28;20883;-69
2021/11/11 10:16:14;;;;;;;33.73;19.97;;;8.10;99.90;;;;;;5116597;28;20468;-68
2021/11/11 10:18:54;;;;;;;36.77;21.13;;;8.20;99.90;;;;;;5117774;28;20865;-68
2021/11/11 10:21:42;;;;;;;29.10;18.13;;;8.20;99.90;;;;;;5117250;28;20474;-68
2021/11/11 10:24:27;;;;;;;32.27;16.57;;;8.30;99.90;;;;;;5117700;28;20443;-68
2021/11/11 10:27:01;;;;;;;24.37;14.60;;;8.40;99.90;;;;;;5117731;28;20528;-68
2021/11/11 10:29:32;;;;;;;17.00;10.73;;;8.50;99.90;;;;;;5117638;28;20843;-68
2021/11/11 10:32:05;;;;;;;20.70;14.60;;;8.60;99.90;;;;;;5117304;28;20437;-68
2021/11/11 10:34:32;;;;;;;27.40;15.93;;;8.50;99.90;;;;;;5117372;28;20452;-68
2021/11/11 10:36:59;;;;;;;34.47;16.70;;;8.50;99.90;;;;;;5117059;28;20522;-68
2021/11/11 10:39:29;;;;;;;21.57;14.57;;;8.50;99.90;;;;;;5116862;28;20484;-69
2021/11/11 10:42:00;;;;;;;20.77;12.80;;;8.50;99.90;;;;;;5120238;28;20493;-68
2021/11/11 10:44:30;;;;;;;35.27;17.50;;;8.40;99.90;;;;;;5118851;28;20911;-68
2021/11/11 10:46:59;;;;;;;29.80;16.30;;;8.50;99.90;;;;;;5119883;27;20468;-69
2021/11/11 10:49:31;;;;;;;25.77;17.00;;;8.50;99.90;;;;;;5118795;28;20526;-68
2021/11/11 10:52:31;;;;;;;25.07;16.00;;;8.50;99.90;;;;;;5116648;28;20441;-68
2021/11/11 10:55:06;;;;;;;22.00;13.60;;;8.50;99.90;;;;;;5117319;28;20551;-68
2021/11/11 10:57:35;;;;;;;22.27;14.97;;;8.60;99.90;;;;;;5116260;27;20451;-69
2021/11/11 11:00:26;;;;;;;24.30;15.90;;;8.70;99.90;;;;;;5117346;28;20787;-68
2021/11/11 11:03:00;;;;;;;30.23;16.77;;;8.90;99.90;;;;;;5119451;28;20473;-69
2021/11/11 11:05:31;;;;;;;28.60;16.07;;;9.00;99.90;;;;;;5118478;28;20542;-67
2021/11/11 11:08:00;;;;;;;28.60;17.70;;;9.20;99.90;;;;;;5116596;28;20471;-69
2021/11/11 11:10:27;;;;;;;27.97;16.83;;;9.30;99.90;;;;;;5116589;28;20457;-68
2021/11/11 11:12:55;;;;;;;26.03;18.27;;;9.40;99.90;;;;;;5117627;28;20460;-68
2021/11/11 11:15:36;;;;;;;21.13;14.77;;;9.50;99.90;;;;;;5116682;28;20465;-69
2021/11/11 11:18:03;;;;;;;26.03;17.10;;;9.50;99.90;;;;;;5116432;27;20461;-68
2021/11/11 11:20:31;;;;;;;27.13;17.27;;;9.60;99.90;;;;;;5116637;27;20765;-68
2021/11/11 11:23:17;;;;;;;24.20;16.47;;;9.70;99.90;;;;;;5116113;27;20772;-68
2021/11/11 11:26:15;;;;;;;27.13;15.43;;;9.80;99.90;;;;;;5115907;27;20447;-69
2021/11/11 11:28:50;;;;;;;26.97;16.33;;;9.70;99.90;;;;;;5116937;28;20564;-69
2021/11/11 11:31:27;;;;;;;29.80;17.87;;;9.60;99.90;;;;;;5116817;28;20437;-68
2021/11/11 11:33:55;;;;;;;30.00;18.57;;;9.60;99.90;;;;;;5115881;27;20440;-69
2021/11/11 11:36:43;;;;;;;24.20;17.40;;;9.60;99.90;;;;;;5115961;28;20463;-68
2021/11/11 11:39:12;;;;;;;28.30;18.63;;;9.70;99.90;;;;;;5115733;28;20440;-68
2021/11/11 11:41:43;;;;;;;28.63;19.40;;;9.90;99.90;;;;;;5116164;28;20554;-68
2021/11/11 11:44:21;;;;;;;30.43;18.47;;;9.90;99.90;;;;;;5115315;28;20443;-68
2021/11/11 11:47:04;;;;;;;25.20;17.80;;;10.10;99.90;;;;;;5115609;28;20437;-67
2021/11/11 11:49:32;;;;;;;26.77;18.00;;;10.20;99.90;;;;;;5115525;28;20472;-69
2021/11/11 11:52:00;;;;;;;24.70;16.73;;;10.40;99.90;;;;;;5115615;28;20491;-69
2021/11/11 11:54:33;;;;;;;24.80;17.40;;;10.70;99.90;;;;;;5116035;28;20455;-68
2021/11/11 11:57:04;;;;;;;21.53;16.23;;;11.30;99.90;;;;;;5115491;28;20455;-68
2021/11/11 11:59:34;;;;;;;21.10;15.33;;;12.00;99.90;;;;;;5115447;28;20773;-69
2021/11/11 12:04:58;;;;;;;24.40;17.03;;;13.30;99.90;;;;;;5113215;28;20457;-68
2021/11/11 12:10:25;;;;;;;23.43;14.90;;;13.40;99.90;;;;;;5106168;28;20519;-67
2021/11/11 12:16:21;;;;;;;24.40;16.37;;;13.60;99.90;;;;;;5115171;28;20967;-68
2021/11/11 12:39:34;;;;;;;24.80;15.63;;;12.00;99.90;;;;;;5114143;28;20414;-68
2021/11/11 12:42:06;;;;;;;23.90;17.60;;;11.90;99.90;;;;;;5114656;28;20434;-68
2021/11/11 12:44:33;;;;;;;25.43;18.13;;;11.60;99.90;;;;;;5115178;28;20446;-69
2021/11/11 12:47:00;;;;;;;28.10;19.37;;;11.10;99.90;;;;;;5114954;28;20449;-68
2021/11/11 12:49:30;;;;;;;31.50;21.30;;;11.00;99.90;;;;;;5115307;28;20473;-68
2021/11/11 12:52:21;;;;;;;34.03;21.10;;;10.90;99.90;;;;;;5114937;28;20918;-68
2021/11/11 12:54:53;;;;;;;27.37;19.60;;;10.70;99.90;;;;;;5114739;28;20437;-68
2021/11/11 12:57:21;;;;;;;30.10;18.37;;;10.50;99.90;;;;;;5115066;28;20517;-68
2021/11/11 12:59:49;;;;;;;27.37;18.40;;;10.30;99.90;;;;;;5114580;28;21042;-68
2021/11/11 13:02:17;;;;;;;40.33;22.83;;;10.10;99.90;;;;;;5114812;28;20453;-69
2021/11/11 13:04:52;;;;;;;34.10;22.87;;;9.90;99.90;;;;;;5114404;28;20513;-70
2021/11/11 13:07:31;;;;;;;31.17;20.27;;;9.70;99.90;;;;;;5115081;28;20889;-68
2021/11/11 13:10:07;;;;;;;34.70;22.53;;;9.60;99.90;;;;;;5114544;28;20463;-69
2021/11/11 13:12:36;;;;;;;34.77;22.90;;;9.50;99.90;;;;;;5114454;28;20499;-69
2021/11/11 13:15:07;;;;;;;37.83;24.43;;;9.40;99.90;;;;;;5114259;28;20561;-68
2021/11/11 13:17:43;;;;;;;39.23;26.27;;;9.40;99.90;;;;;;5114834;28;20486;-67
2021/11/11 13:20:21;;;;;;;34.10;23.67;;;9.30;99.90;;;;;;5114715;28;20446;-68
2021/11/11 13:22:53;;;;;;;34.87;22.30;;;9.20;99.90;;;;;;5114069;28;20884;-67
2021/11/11 13:26:06;;;;;;;38.80;22.97;;;9.20;99.90;;;;;;5114286;28;20490;-68
2021/11/11 15:16:56;;;;;;;26.63;15.57;;;10.10;99.90;;;;;;5116334;28;20434;-69
2021/11/11 15:19:45;;;;;;;21.73;15.00;;;10.00;99.90;;;;;;5116483;28;20719;-69
2021/11/11 15:45:41;;;;;;;24.37;15.23;;;9.50;99.90;;;;;;5116149;28;20492;-69
2021/11/11 16:01:52;;;;;;;21.47;14.60;;;9.50;99.90;;;;;;5115797;28;20480;-68
2021/11/11 16:20:50;;;;;;;24.57;16.13;;;9.50;99.90;;;;;;5115048;28;20484;-69